sensor_id;sensor_type;location;lat;lon;timestamp;P1;durP1;ratioP1;P2;durP2;ratioP2
18224;SDS011;9237;48.590;8.854;2023-02-14T00:01:37;1.00;;;1.00;;
18224;SDS011;9237;48.590;8.854;2023-02-14T00:04:04;1.00;;;1.00;;
18224;SDS011;9237;48.590;8.854;2023-02-14T00:06:31;1.00;;;1.00;;
18224;SDS011;9237;48.590;8.854;2023-02-14T00:08:59;0.90;;;0.90;;
18224;SDS011;9237;48.590;8.854;2023-02-14T00:11:26;0.90;;;0.90;;
18224;SDS011;9237;48.590;8.854;2023-02-14T00:13:55;1.00;;;1.00;;
18224;SDS011;9237;48.590;8.854;2023-02-14T00:16:39;1.00;;;1.00;;
18224;SDS011;9237;48.590;8.854;2023-02-14T00:19:06;0.90;;;0.90;;
18224;SDS011;9237;48.590;8.854;2023-02-14T00:21:35;0.90;;;0.90;;
18224;SDS011;9237;48.590;8.854;2023-02-14T00:24:03;0.90;;;0.90;;
18224;SDS011;9237;48.590;8.854;2023-02-14T00:26:30;0.97;;;0.97;;
18224;SDS011;9237;48.590;8.854;2023-02-14T00:28:59;1.00;;;1.00;;
18224;SDS011;9237;48.590;8.854;2023-02-14T00:31:26;1.10;;;1.10;;
18224;SDS011;9237;48.590;8.854;2023-02-14T00:33:53;1.00;;;1.00;;
18224;SDS011;9237;48.590;8.854;2023-02-14T00:36:19;1.03;;;1.03;;
18224;SDS011;9237;48.590;8.854;2023-02-14T00:38:46;0.90;;;0.90;;
18224;SDS011;9237;48.590;8.854;2023-02-14T00:41:13;0.90;;;0.90;;
18224;SDS011;9237;48.590;8.854;2023-02-14T00:43:43;1.00;;;1.00;;
18224;SDS011;9237;48.590;8.854;2023-02-14T00:46:12;0.90;;;0.90;;
18224;SDS011;9237;48.590;8.854;2023-02-14T00:48:39;0.90;;;0.90;;
18224;SDS011;9237;48.590;8.854;2023-02-14T00:51:07;0.97;;;0.97;;
18224;SDS011;9237;48.590;8.854;2023-02-14T00:53:34;0.90;;;0.90;;
18224;SDS011;9237;48.590;8.854;2023-02-14T00:56:02;1.07;;;1.07;;
18224;SDS011;9237;48.590;8.854;2023-02-14T00:58:29;0.97;;;0.97;;
18224;SDS011;9237;48.590;8.854;2023-02-14T01:00:56;1.00;;;1.00;;
18224;SDS011;9237;48.590;8.854;2023-02-14T01:03:27;1.10;;;1.10;;
18224;SDS011;9237;48.590;8.854;2023-02-14T01:05:53;0.90;;;0.90;;
18224;SDS011;9237;48.590;8.854;2023-02-14T01:08:20;1.00;;;1.00;;
18224;SDS011;9237;48.590;8.854;2023-02-14T01:10:47;1.10;;;1.10;;
18224;SDS011;9237;48.590;8.854;2023-02-14T01:13:14;0.90;;;0.90;;
18224;SDS011;9237;48.590;8.854;2023-02-14T01:15:41;1.00;;;1.00;;
18224;SDS011;9237;48.590;8.854;2023-02-14T01:18:11;1.00;;;1.00;;
18224;SDS011;9237;48.590;8.854;2023-02-14T01:20:39;1.00;;;1.00;;
18224;SDS011;9237;48.590;8.854;2023-02-14T01:23:06;1.00;;;1.00;;
18224;SDS011;9237;48.590;8.854;2023-02-14T01:25:35;0.90;;;0.90;;
18224;SDS011;9237;48.590;8.854;2023-02-14T01:28:02;0.90;;;0.90;;
18224;SDS011;9237;48.590;8.854;2023-02-14T01:30:29;0.87;;;0.87;;
18224;SDS011;9237;48.590;8.854;2023-02-14T01:32:56;0.97;;;0.97;;
18224;SDS011;9237;48.590;8.854;2023-02-14T01:35:23;0.87;;;0.87;;
18224;SDS011;9237;48.590;8.854;2023-02-14T01:37:51;1.10;;;1.10;;
18224;SDS011;9237;48.590;8.854;2023-02-14T01:40:19;1.03;;;1.03;;
18224;SDS011;9237;48.590;8.854;2023-02-14T01:42:46;0.90;;;0.90;;
18224;SDS011;9237;48.590;8.854;2023-02-14T01:45:14;1.10;;;1.10;;
18224;SDS011;9237;48.590;8.854;2023-02-14T01:47:43;0.90;;;0.90;;
18224;SDS011;9237;48.590;8.854;2023-02-14T01:50:16;1.00;;;1.00;;
18224;SDS011;9237;48.590;8.854;2023-02-14T01:52:47;1.00;;;1.00;;
18224;SDS011;9237;48.590;8.854;2023-02-14T01:55:18;1.10;;;1.10;;
18224;SDS011;9237;48.590;8.854;2023-02-14T01:57:48;1.00;;;1.00;;
18224;SDS011;9237;48.590;8.854;2023-02-14T02:00:17;1.10;;;1.10;;
18224;SDS011;9237;48.590;8.854;2023-02-14T02:03:02;1.07;;;1.07;;
18224;SDS011;9237;48.590;8.854;2023-02-14T02:05:30;1.27;;;1.17;;
18224;SDS011;9237;48.590;8.854;2023-02-14T02:07:58;1.10;;;1.10;;
18224;SDS011;9237;48.590;8.854;2023-02-14T02:10:27;1.00;;;1.00;;
18224;SDS011;9237;48.590;8.854;2023-02-14T02:12:54;1.00;;;1.00;;
18224;SDS011;9237;48.590;8.854;2023-02-14T02:15:21;1.00;;;1.00;;
18224;SDS011;9237;48.590;8.854;2023-02-14T02:17:52;1.00;;;1.00;;
18224;SDS011;9237;48.590;8.854;2023-02-14T02:20:34;1.00;;;1.00;;
18224;SDS011;9237;48.590;8.854;2023-02-14T02:29:31;1.00;;;1.00;;
18224;SDS011;9237;48.590;8.854;2023-02-14T02:32:20;1.00;;;1.00;;
18224;SDS011;9237;48.590;8.854;2023-02-14T02:35:15;1.10;;;1.10;;
18224;SDS011;9237;48.590;8.854;2023-02-14T02:38:05;1.00;;;1.00;;
18224;SDS011;9237;48.590;8.854;2023-02-14T02:40:43;1.00;;;1.00;;
18224;SDS011;9237;48.590;8.854;2023-02-14T02:43:17;1.00;;;1.00;;
18224;SDS011;9237;48.590;8.854;2023-02-14T02:45:57;1.00;;;1.00;;
18224;SDS011;9237;48.590;8.854;2023-02-14T02:48:46;0.97;;;0.97;;
18224;SDS011;9237;48.590;8.854;2023-02-14T02:51:19;0.93;;;0.93;;
18224;SDS011;9237;48.590;8.854;2023-02-14T02:54:08;1.00;;;1.00;;
18224;SDS011;9237;48.590;8.854;2023-02-14T02:56:42;1.07;;;1.07;;
18224;SDS011;9237;48.590;8.854;2023-02-14T02:59:16;0.90;;;0.90;;
18224;SDS011;9237;48.590;8.854;2023-02-14T03:01:47;1.10;;;1.10;;
18224;SDS011;9237;48.590;8.854;2023-02-14T03:04:17;1.00;;;1.00;;
18224;SDS011;9237;48.590;8.854;2023-02-14T03:07:05;1.00;;;1.00;;
18224;SDS011;9237;48.590;8.854;2023-02-14T03:09:50;1.00;;;1.00;;
18224;SDS011;9237;48.590;8.854;2023-02-14T03:12:24;1.07;;;1.07;;
18224;SDS011;9237;48.590;8.854;2023-02-14T03:15:16;1.10;;;1.10;;
18224;SDS011;9237;48.590;8.854;2023-02-14T03:17:50;1.00;;;1.00;;
18224;SDS011;9237;48.590;8.854;2023-02-14T03:20:22;0.97;;;0.97;;
18224;SDS011;9237;48.590;8.854;2023-02-14T03:22:59;1.00;;;1.00;;
18224;SDS011;9237;48.590;8.854;2023-02-14T03:25:37;1.10;;;1.10;;
18224;SDS011;9237;48.590;8.854;2023-02-14T03:28:11;1.00;;;1.00;;
18224;SDS011;9237;48.590;8.854;2023-02-14T03:30:44;1.00;;;1.00;;
18224;SDS011;9237;48.590;8.854;2023-02-14T03:33:17;0.90;;;0.90;;
18224;SDS011;9237;48.590;8.854;2023-02-14T03:35:52;0.90;;;0.90;;
18224;SDS011;9237;48.590;8.854;2023-02-14T03:38:28;0.90;;;0.90;;
18224;SDS011;9237;48.590;8.854;2023-02-14T03:40:59;1.00;;;1.00;;
18224;SDS011;9237;48.590;8.854;2023-02-14T03:43:29;1.07;;;1.07;;
18224;SDS011;9237;48.590;8.854;2023-02-14T03:46:00;1.00;;;1.00;;
18224;SDS011;9237;48.590;8.854;2023-02-14T03:48:32;1.00;;;1.00;;
18224;SDS011;9237;48.590;8.854;2023-02-14T03:51:00;1.10;;;1.10;;
18224;SDS011;9237;48.590;8.854;2023-02-14T03:53:31;1.13;;;1.13;;
18224;SDS011;9237;48.590;8.854;2023-02-14T03:56:02;1.07;;;1.07;;
18224;SDS011;9237;48.590;8.854;2023-02-14T03:58:36;1.00;;;1.00;;
18224;SDS011;9237;48.590;8.854;2023-02-14T04:01:07;1.00;;;1.00;;
18224;SDS011;9237;48.590;8.854;2023-02-14T04:03:39;1.00;;;1.00;;
18224;SDS011;9237;48.590;8.854;2023-02-14T04:06:07;1.10;;;1.10;;
18224;SDS011;9237;48.590;8.854;2023-02-14T04:08:36;1.00;;;1.00;;
18224;SDS011;9237;48.590;8.854;2023-02-14T04:11:03;0.97;;;0.97;;
18224;SDS011;9237;48.590;8.854;2023-02-14T04:13:31;1.00;;;1.00;;
18224;SDS011;9237;48.590;8.854;2023-02-14T04:16:00;1.10;;;1.10;;
18224;SDS011;9237;48.590;8.854;2023-02-14T04:18:27;1.10;;;1.10;;
18224;SDS011;9237;48.590;8.854;2023-02-14T04:21:11;0.93;;;0.93;;
18224;SDS011;9237;48.590;8.854;2023-02-14T04:23:39;1.10;;;1.10;;
18224;SDS011;9237;48.590;8.854;2023-02-14T04:26:06;1.17;;;1.17;;
18224;SDS011;9237;48.590;8.854;2023-02-14T04:28:33;0.90;;;0.90;;
18224;SDS011;9237;48.590;8.854;2023-02-14T04:31:00;1.10;;;1.10;;
18224;SDS011;9237;48.590;8.854;2023-02-14T04:33:28;1.00;;;1.00;;
18224;SDS011;9237;48.590;8.854;2023-02-14T04:35:55;1.00;;;1.00;;
18224;SDS011;9237;48.590;8.854;2023-02-14T04:38:22;0.93;;;0.93;;
18224;SDS011;9237;48.590;8.854;2023-02-14T04:40:50;1.10;;;1.10;;
18224;SDS011;9237;48.590;8.854;2023-02-14T04:43:17;0.90;;;0.90;;
18224;SDS011;9237;48.590;8.854;2023-02-14T04:45:44;1.10;;;1.10;;
18224;SDS011;9237;48.590;8.854;2023-02-14T04:48:12;1.20;;;1.20;;
18224;SDS011;9237;48.590;8.854;2023-02-14T04:50:38;1.00;;;1.00;;
18224;SDS011;9237;48.590;8.854;2023-02-14T04:53:05;1.10;;;1.10;;
18224;SDS011;9237;48.590;8.854;2023-02-14T04:55:32;1.00;;;1.00;;
18224;SDS011;9237;48.590;8.854;2023-02-14T04:58:00;0.90;;;0.90;;
18224;SDS011;9237;48.590;8.854;2023-02-14T05:00:27;1.00;;;1.00;;
18224;SDS011;9237;48.590;8.854;2023-02-14T05:02:54;0.90;;;0.90;;
18224;SDS011;9237;48.590;8.854;2023-02-14T05:05:20;1.00;;;1.00;;
18224;SDS011;9237;48.590;8.854;2023-02-14T05:07:47;1.00;;;1.00;;
18224;SDS011;9237;48.590;8.854;2023-02-14T05:10:14;0.93;;;0.93;;
18224;SDS011;9237;48.590;8.854;2023-02-14T05:12:41;0.90;;;0.90;;
18224;SDS011;9237;48.590;8.854;2023-02-14T05:15:09;1.00;;;1.00;;
18224;SDS011;9237;48.590;8.854;2023-02-14T05:17:36;1.00;;;1.00;;
18224;SDS011;9237;48.590;8.854;2023-02-14T05:20:03;0.97;;;0.97;;
18224;SDS011;9237;48.590;8.854;2023-02-14T05:22:31;0.90;;;0.90;;
18224;SDS011;9237;48.590;8.854;2023-02-14T05:24:58;0.90;;;0.90;;
18224;SDS011;9237;48.590;8.854;2023-02-14T05:27:25;1.03;;;1.03;;
18224;SDS011;9237;48.590;8.854;2023-02-14T05:29:52;1.10;;;1.10;;
18224;SDS011;9237;48.590;8.854;2023-02-14T05:32:20;1.10;;;1.10;;
18224;SDS011;9237;48.590;8.854;2023-02-14T05:34:46;1.07;;;1.07;;
18224;SDS011;9237;48.590;8.854;2023-02-14T05:37:13;1.00;;;1.00;;
18224;SDS011;9237;48.590;8.854;2023-02-14T05:39:40;1.10;;;1.10;;
18224;SDS011;9237;48.590;8.854;2023-02-14T05:42:07;1.10;;;1.10;;
18224;SDS011;9237;48.590;8.854;2023-02-14T05:44:34;1.30;;;1.30;;
18224;SDS011;9237;48.590;8.854;2023-02-14T05:47:00;1.10;;;1.10;;
18224;SDS011;9237;48.590;8.854;2023-02-14T05:49:29;1.03;;;1.03;;
18224;SDS011;9237;48.590;8.854;2023-02-14T05:51:55;1.00;;;1.00;;
18224;SDS011;9237;48.590;8.854;2023-02-14T05:54:22;1.00;;;1.00;;
18224;SDS011;9237;48.590;8.854;2023-02-14T05:56:49;1.10;;;1.10;;
18224;SDS011;9237;48.590;8.854;2023-02-14T05:59:16;1.03;;;1.03;;
18224;SDS011;9237;48.590;8.854;2023-02-14T06:01:43;1.20;;;1.20;;
18224;SDS011;9237;48.590;8.854;2023-02-14T06:04:09;1.30;;;1.30;;
18224;SDS011;9237;48.590;8.854;2023-02-14T06:06:37;1.20;;;1.20;;
18224;SDS011;9237;48.590;8.854;2023-02-14T06:09:04;1.10;;;1.10;;
18224;SDS011;9237;48.590;8.854;2023-02-14T06:11:31;1.10;;;1.10;;
18224;SDS011;9237;48.590;8.854;2023-02-14T06:13:58;0.90;;;0.90;;
18224;SDS011;9237;48.590;8.854;2023-02-14T06:16:25;1.00;;;1.00;;
18224;SDS011;9237;48.590;8.854;2023-02-14T06:18:51;1.00;;;1.00;;
18224;SDS011;9237;48.590;8.854;2023-02-14T06:21:18;1.07;;;1.07;;
18224;SDS011;9237;48.590;8.854;2023-02-14T06:23:46;1.20;;;1.13;;
18224;SDS011;9237;48.590;8.854;2023-02-14T06:26:13;1.20;;;1.20;;
18224;SDS011;9237;48.590;8.854;2023-02-14T06:28:40;1.10;;;1.10;;
18224;SDS011;9237;48.590;8.854;2023-02-14T06:31:07;1.00;;;1.00;;
18224;SDS011;9237;48.590;8.854;2023-02-14T06:33:35;1.10;;;1.10;;
18224;SDS011;9237;48.590;8.854;2023-02-14T06:36:02;1.10;;;1.10;;
18224;SDS011;9237;48.590;8.854;2023-02-14T06:38:29;1.00;;;1.00;;
18224;SDS011;9237;48.590;8.854;2023-02-14T06:41:02;1.10;;;1.10;;
18224;SDS011;9237;48.590;8.854;2023-02-14T06:43:29;1.00;;;1.00;;
18224;SDS011;9237;48.590;8.854;2023-02-14T06:45:57;1.10;;;1.10;;
18224;SDS011;9237;48.590;8.854;2023-02-14T06:48:23;1.10;;;1.10;;
18224;SDS011;9237;48.590;8.854;2023-02-14T06:50:50;1.30;;;1.30;;
18224;SDS011;9237;48.590;8.854;2023-02-14T06:53:17;1.10;;;1.10;;
18224;SDS011;9237;48.590;8.854;2023-02-14T06:55:44;1.00;;;1.00;;
18224;SDS011;9237;48.590;8.854;2023-02-14T06:58:13;1.00;;;1.00;;
18224;SDS011;9237;48.590;8.854;2023-02-14T07:00:39;1.00;;;1.00;;
18224;SDS011;9237;48.590;8.854;2023-02-14T07:03:06;1.00;;;1.00;;
18224;SDS011;9237;48.590;8.854;2023-02-14T07:05:33;1.13;;;1.13;;
18224;SDS011;9237;48.590;8.854;2023-02-14T07:08:00;1.00;;;1.00;;
18224;SDS011;9237;48.590;8.854;2023-02-14T07:10:28;1.10;;;1.10;;
18224;SDS011;9237;48.590;8.854;2023-02-14T07:12:54;1.10;;;1.10;;
18224;SDS011;9237;48.590;8.854;2023-02-14T07:15:23;1.00;;;1.00;;
18224;SDS011;9237;48.590;8.854;2023-02-14T07:17:49;0.90;;;0.90;;
18224;SDS011;9237;48.590;8.854;2023-02-14T07:20:16;1.00;;;1.00;;
18224;SDS011;9237;48.590;8.854;2023-02-14T07:22:44;1.30;;;1.30;;
18224;SDS011;9237;48.590;8.854;2023-02-14T07:25:11;1.13;;;1.13;;
18224;SDS011;9237;48.590;8.854;2023-02-14T07:27:38;1.10;;;1.10;;
18224;SDS011;9237;48.590;8.854;2023-02-14T07:30:06;1.00;;;1.00;;
18224;SDS011;9237;48.590;8.854;2023-02-14T07:32:36;1.00;;;1.00;;
18224;SDS011;9237;48.590;8.854;2023-02-14T07:35:04;1.00;;;1.00;;
18224;SDS011;9237;48.590;8.854;2023-02-14T07:37:31;1.20;;;1.20;;
18224;SDS011;9237;48.590;8.854;2023-02-14T07:39:58;1.10;;;1.10;;
18224;SDS011;9237;48.590;8.854;2023-02-14T07:42:26;0.90;;;0.90;;
18224;SDS011;9237;48.590;8.854;2023-02-14T07:44:53;1.00;;;1.00;;
18224;SDS011;9237;48.590;8.854;2023-02-14T07:47:19;1.00;;;1.00;;
18224;SDS011;9237;48.590;8.854;2023-02-14T07:49:48;1.00;;;1.00;;
18224;SDS011;9237;48.590;8.854;2023-02-14T07:52:14;1.00;;;1.00;;
18224;SDS011;9237;48.590;8.854;2023-02-14T07:54:42;1.00;;;1.00;;
18224;SDS011;9237;48.590;8.854;2023-02-14T07:57:09;1.00;;;1.00;;
18224;SDS011;9237;48.590;8.854;2023-02-14T07:59:36;1.00;;;1.00;;
18224;SDS011;9237;48.590;8.854;2023-02-14T08:02:03;0.90;;;0.90;;
18224;SDS011;9237;48.590;8.854;2023-02-14T08:04:29;0.80;;;0.80;;
18224;SDS011;9237;48.590;8.854;2023-02-14T08:06:58;1.00;;;1.00;;
18224;SDS011;9237;48.590;8.854;2023-02-14T08:09:24;0.90;;;0.90;;
18224;SDS011;9237;48.590;8.854;2023-02-14T08:11:52;0.90;;;0.90;;
18224;SDS011;9237;48.590;8.854;2023-02-14T08:14:37;0.90;;;0.90;;
18224;SDS011;9237;48.590;8.854;2023-02-14T08:17:05;1.00;;;1.00;;
18224;SDS011;9237;48.590;8.854;2023-02-14T08:19:34;0.83;;;0.83;;
18224;SDS011;9237;48.590;8.854;2023-02-14T08:22:02;0.90;;;0.90;;
18224;SDS011;9237;48.590;8.854;2023-02-14T08:24:30;0.80;;;0.80;;
18224;SDS011;9237;48.590;8.854;2023-02-14T08:26:57;0.80;;;0.80;;
18224;SDS011;9237;48.590;8.854;2023-02-14T08:29:24;0.80;;;0.80;;
18224;SDS011;9237;48.590;8.854;2023-02-14T08:31:51;0.80;;;0.80;;
18224;SDS011;9237;48.590;8.854;2023-02-14T08:34:18;0.87;;;0.87;;
18224;SDS011;9237;48.590;8.854;2023-02-14T08:36:45;0.70;;;0.70;;
18224;SDS011;9237;48.590;8.854;2023-02-14T08:39:13;0.90;;;0.90;;
18224;SDS011;9237;48.590;8.854;2023-02-14T08:41:40;0.80;;;0.80;;
18224;SDS011;9237;48.590;8.854;2023-02-14T08:44:07;0.70;;;0.70;;
18224;SDS011;9237;48.590;8.854;2023-02-14T08:46:34;0.70;;;0.70;;
18224;SDS011;9237;48.590;8.854;2023-02-14T08:49:01;0.80;;;0.80;;
18224;SDS011;9237;48.590;8.854;2023-02-14T08:51:28;0.70;;;0.70;;
18224;SDS011;9237;48.590;8.854;2023-02-14T08:53:54;0.70;;;0.70;;
18224;SDS011;9237;48.590;8.854;2023-02-14T08:56:23;0.80;;;0.80;;
18224;SDS011;9237;48.590;8.854;2023-02-14T08:58:50;0.90;;;0.90;;
18224;SDS011;9237;48.590;8.854;2023-02-14T09:01:18;0.90;;;0.90;;
18224;SDS011;9237;48.590;8.854;2023-02-14T09:03:46;0.80;;;0.80;;
18224;SDS011;9237;48.590;8.854;2023-02-14T09:06:13;0.90;;;0.90;;
18224;SDS011;9237;48.590;8.854;2023-02-14T09:08:42;0.80;;;0.80;;
18224;SDS011;9237;48.590;8.854;2023-02-14T09:11:10;0.70;;;0.70;;
18224;SDS011;9237;48.590;8.854;2023-02-14T09:13:40;0.70;;;0.70;;
18224;SDS011;9237;48.590;8.854;2023-02-14T09:16:08;0.80;;;0.80;;
18224;SDS011;9237;48.590;8.854;2023-02-14T09:18:36;0.80;;;0.80;;
18224;SDS011;9237;48.590;8.854;2023-02-14T09:21:05;0.70;;;0.70;;
18224;SDS011;9237;48.590;8.854;2023-02-14T09:23:34;0.80;;;0.80;;
18224;SDS011;9237;48.590;8.854;2023-02-14T09:26:01;0.73;;;0.73;;
18224;SDS011;9237;48.590;8.854;2023-02-14T09:28:29;0.70;;;0.70;;
18224;SDS011;9237;48.590;8.854;2023-02-14T09:30:58;0.80;;;0.80;;
18224;SDS011;9237;48.590;8.854;2023-02-14T09:33:34;0.90;;;0.90;;
18224;SDS011;9237;48.590;8.854;2023-02-14T09:36:18;0.80;;;0.80;;
18224;SDS011;9237;48.590;8.854;2023-02-14T09:38:45;0.80;;;0.80;;
18224;SDS011;9237;48.590;8.854;2023-02-14T09:41:23;0.80;;;0.80;;
18224;SDS011;9237;48.590;8.854;2023-02-14T09:44:17;0.80;;;0.80;;
18224;SDS011;9237;48.590;8.854;2023-02-14T09:46:53;0.80;;;0.80;;
18224;SDS011;9237;48.590;8.854;2023-02-14T09:49:25;0.80;;;0.80;;
18224;SDS011;9237;48.590;8.854;2023-02-14T09:51:56;0.90;;;0.90;;
18224;SDS011;9237;48.590;8.854;2023-02-14T09:54:27;0.80;;;0.80;;
18224;SDS011;9237;48.590;8.854;2023-02-14T09:56:56;0.80;;;0.80;;
18224;SDS011;9237;48.590;8.854;2023-02-14T09:59:27;0.80;;;0.80;;
18224;SDS011;9237;48.590;8.854;2023-02-14T10:01:59;0.87;;;0.87;;
18224;SDS011;9237;48.590;8.854;2023-02-14T10:04:46;0.90;;;0.90;;
18224;SDS011;9237;48.590;8.854;2023-02-14T10:07:28;0.90;;;0.90;;
18224;SDS011;9237;48.590;8.854;2023-02-14T10:10:02;0.80;;;0.80;;
18224;SDS011;9237;48.590;8.854;2023-02-14T10:12:39;0.80;;;0.80;;
18224;SDS011;9237;48.590;8.854;2023-02-14T10:15:11;0.80;;;0.80;;
18224;SDS011;9237;48.590;8.854;2023-02-14T10:17:43;0.80;;;0.80;;
18224;SDS011;9237;48.590;8.854;2023-02-14T10:20:17;0.90;;;0.90;;
18224;SDS011;9237;48.590;8.854;2023-02-14T10:22:50;0.80;;;0.80;;
18224;SDS011;9237;48.590;8.854;2023-02-14T10:25:23;0.80;;;0.80;;
18224;SDS011;9237;48.590;8.854;2023-02-14T10:27:54;0.87;;;0.87;;
18224;SDS011;9237;48.590;8.854;2023-02-14T10:30:24;0.90;;;0.90;;
18224;SDS011;9237;48.590;8.854;2023-02-14T10:32:55;0.90;;;0.90;;
18224;SDS011;9237;48.590;8.854;2023-02-14T10:35:30;1.00;;;1.00;;
18224;SDS011;9237;48.590;8.854;2023-02-14T10:38:09;0.90;;;0.90;;
18224;SDS011;9237;48.590;8.854;2023-02-14T10:43:33;0.80;;;0.80;;
18224;SDS011;9237;48.590;8.854;2023-02-14T10:46:10;0.90;;;0.90;;
18224;SDS011;9237;48.590;8.854;2023-02-14T10:48:45;0.80;;;0.80;;
18224;SDS011;9237;48.590;8.854;2023-02-14T10:51:20;0.80;;;0.80;;
18224;SDS011;9237;48.590;8.854;2023-02-14T10:53:57;0.83;;;0.83;;
18224;SDS011;9237;48.590;8.854;2023-02-14T10:56:31;0.90;;;0.90;;
18224;SDS011;9237;48.590;8.854;2023-02-14T10:59:07;0.93;;;0.93;;
18224;SDS011;9237;48.590;8.854;2023-02-14T11:01:42;0.90;;;0.90;;
18224;SDS011;9237;48.590;8.854;2023-02-14T11:04:11;0.80;;;0.80;;
18224;SDS011;9237;48.590;8.854;2023-02-14T11:06:40;0.87;;;0.87;;
18224;SDS011;9237;48.590;8.854;2023-02-14T11:09:08;0.90;;;0.90;;
18224;SDS011;9237;48.590;8.854;2023-02-14T11:11:36;0.90;;;0.90;;
18224;SDS011;9237;48.590;8.854;2023-02-14T11:14:22;0.90;;;0.90;;
18224;SDS011;9237;48.590;8.854;2023-02-14T11:16:52;0.73;;;0.73;;
18224;SDS011;9237;48.590;8.854;2023-02-14T11:19:22;0.80;;;0.80;;
18224;SDS011;9237;48.590;8.854;2023-02-14T11:21:52;0.80;;;0.80;;
18224;SDS011;9237;48.590;8.854;2023-02-14T11:24:24;0.80;;;0.80;;
18224;SDS011;9237;48.590;8.854;2023-02-14T11:26:54;0.80;;;0.80;;
18224;SDS011;9237;48.590;8.854;2023-02-14T11:29:25;0.80;;;0.80;;
18224;SDS011;9237;48.590;8.854;2023-02-14T11:31:54;0.80;;;0.80;;
18224;SDS011;9237;48.590;8.854;2023-02-14T11:34:32;0.80;;;0.80;;
18224;SDS011;9237;48.590;8.854;2023-02-14T11:37:01;0.70;;;0.70;;
18224;SDS011;9237;48.590;8.854;2023-02-14T11:39:29;0.70;;;0.70;;
18224;SDS011;9237;48.590;8.854;2023-02-14T11:41:59;1.00;;;1.00;;
18224;SDS011;9237;48.590;8.854;2023-02-14T11:44:28;0.80;;;0.80;;
18224;SDS011;9237;48.590;8.854;2023-02-14T11:47:14;0.80;;;0.80;;
18224;SDS011;9237;48.590;8.854;2023-02-14T11:49:54;0.80;;;0.80;;
18224;SDS011;9237;48.590;8.854;2023-02-14T11:52:22;0.70;;;0.70;;
18224;SDS011;9237;48.590;8.854;2023-02-14T11:54:50;0.80;;;0.80;;
18224;SDS011;9237;48.590;8.854;2023-02-14T11:57:20;0.80;;;0.80;;
18224;SDS011;9237;48.590;8.854;2023-02-14T11:59:52;0.80;;;0.80;;
18224;SDS011;9237;48.590;8.854;2023-02-14T12:02:22;0.70;;;0.70;;
18224;SDS011;9237;48.590;8.854;2023-02-14T12:04:55;0.80;;;0.80;;
18224;SDS011;9237;48.590;8.854;2023-02-14T12:07:26;0.70;;;0.70;;
18224;SDS011;9237;48.590;8.854;2023-02-14T12:10:15;0.80;;;0.80;;
18224;SDS011;9237;48.590;8.854;2023-02-14T12:12:54;0.80;;;0.80;;
18224;SDS011;9237;48.590;8.854;2023-02-14T12:15:25;0.80;;;0.80;;
18224;SDS011;9237;48.590;8.854;2023-02-14T12:18:05;0.70;;;0.70;;
18224;SDS011;9237;48.590;8.854;2023-02-14T12:20:54;0.70;;;0.70;;
18224;SDS011;9237;48.590;8.854;2023-02-14T12:23:26;0.80;;;0.80;;
18224;SDS011;9237;48.590;8.854;2023-02-14T12:26:01;0.70;;;0.70;;
18224;SDS011;9237;48.590;8.854;2023-02-14T12:28:35;0.80;;;0.80;;
18224;SDS011;9237;48.590;8.854;2023-02-14T12:31:07;0.80;;;0.80;;
18224;SDS011;9237;48.590;8.854;2023-02-14T12:33:36;0.73;;;0.73;;
18224;SDS011;9237;48.590;8.854;2023-02-14T12:36:08;0.70;;;0.70;;
18224;SDS011;9237;48.590;8.854;2023-02-14T12:38:40;0.80;;;0.80;;
18224;SDS011;9237;48.590;8.854;2023-02-14T12:41:19;0.70;;;0.70;;
18224;SDS011;9237;48.590;8.854;2023-02-14T12:43:52;0.70;;;0.70;;
18224;SDS011;9237;48.590;8.854;2023-02-14T12:46:26;0.70;;;0.70;;
18224;SDS011;9237;48.590;8.854;2023-02-14T12:49:12;0.70;;;0.70;;
18224;SDS011;9237;48.590;8.854;2023-02-14T12:52:09;0.70;;;0.70;;
18224;SDS011;9237;48.590;8.854;2023-02-14T12:54:54;0.73;;;0.73;;
18224;SDS011;9237;48.590;8.854;2023-02-14T12:57:34;0.70;;;0.70;;
18224;SDS011;9237;48.590;8.854;2023-02-14T13:00:14;0.70;;;0.70;;
18224;SDS011;9237;48.590;8.854;2023-02-14T13:05:57;0.80;;;0.80;;
18224;SDS011;9237;48.590;8.854;2023-02-14T13:08:35;0.80;;;0.80;;
18224;SDS011;9237;48.590;8.854;2023-02-14T13:11:14;0.80;;;0.80;;
18224;SDS011;9237;48.590;8.854;2023-02-14T13:13:50;0.80;;;0.80;;
18224;SDS011;9237;48.590;8.854;2023-02-14T13:16:29;0.77;;;0.77;;
18224;SDS011;9237;48.590;8.854;2023-02-14T13:19:03;0.90;;;0.90;;
18224;SDS011;9237;48.590;8.854;2023-02-14T13:21:36;0.70;;;0.70;;
18224;SDS011;9237;48.590;8.854;2023-02-14T13:24:14;0.80;;;0.80;;
18224;SDS011;9237;48.590;8.854;2023-02-14T13:26:43;0.73;;;0.73;;
18224;SDS011;9237;48.590;8.854;2023-02-14T13:29:15;0.70;;;0.70;;
18224;SDS011;9237;48.590;8.854;2023-02-14T13:31:47;0.70;;;0.70;;
18224;SDS011;9237;48.590;8.854;2023-02-14T13:34:17;0.60;;;0.60;;
18224;SDS011;9237;48.590;8.854;2023-02-14T13:36:50;0.70;;;0.70;;
18224;SDS011;9237;48.590;8.854;2023-02-14T13:39:20;0.60;;;0.60;;
18224;SDS011;9237;48.590;8.854;2023-02-14T13:41:50;0.70;;;0.70;;
18224;SDS011;9237;48.590;8.854;2023-02-14T13:47:14;0.70;;;0.70;;
18224;SDS011;9237;48.590;8.854;2023-02-14T13:49:46;0.80;;;0.80;;
18224;SDS011;9237;48.590;8.854;2023-02-14T13:55:07;0.73;;;0.73;;
18224;SDS011;9237;48.590;8.854;2023-02-14T13:57:35;0.80;;;0.80;;
18224;SDS011;9237;48.590;8.854;2023-02-14T14:00:22;0.60;;;0.60;;
18224;SDS011;9237;48.590;8.854;2023-02-14T14:03:04;0.80;;;0.80;;
18224;SDS011;9237;48.590;8.854;2023-02-14T14:08:39;0.70;;;0.70;;
18224;SDS011;9237;48.590;8.854;2023-02-14T14:11:12;0.70;;;0.70;;
18224;SDS011;9237;48.590;8.854;2023-02-14T14:14:33;0.70;;;0.70;;
18224;SDS011;9237;48.590;8.854;2023-02-14T14:17:02;0.70;;;0.70;;
18224;SDS011;9237;48.590;8.854;2023-02-14T14:19:47;0.80;;;0.80;;
18224;SDS011;9237;48.590;8.854;2023-02-14T14:22:14;0.70;;;0.70;;
18224;SDS011;9237;48.590;8.854;2023-02-14T14:24:55;0.70;;;0.70;;
18224;SDS011;9237;48.590;8.854;2023-02-14T14:27:26;0.70;;;0.70;;
18224;SDS011;9237;48.590;8.854;2023-02-14T14:29:57;0.70;;;0.70;;
18224;SDS011;9237;48.590;8.854;2023-02-14T14:32:26;0.70;;;0.70;;
18224;SDS011;9237;48.590;8.854;2023-02-14T14:34:55;0.70;;;0.70;;
18224;SDS011;9237;48.590;8.854;2023-02-14T14:37:24;0.60;;;0.60;;
18224;SDS011;9237;48.590;8.854;2023-02-14T14:39:53;0.70;;;0.70;;
18224;SDS011;9237;48.590;8.854;2023-02-14T14:42:20;0.60;;;0.60;;
18224;SDS011;9237;48.590;8.854;2023-02-14T14:44:51;0.60;;;0.60;;
18224;SDS011;9237;48.590;8.854;2023-02-14T14:47:21;0.60;;;0.60;;
18224;SDS011;9237;48.590;8.854;2023-02-14T14:49:52;0.60;;;0.60;;
18224;SDS011;9237;48.590;8.854;2023-02-14T14:52:33;0.60;;;0.60;;
18224;SDS011;9237;48.590;8.854;2023-02-14T14:55:02;0.60;;;0.60;;
18224;SDS011;9237;48.590;8.854;2023-02-14T14:57:38;0.60;;;0.60;;
18224;SDS011;9237;48.590;8.854;2023-02-14T15:00:12;0.60;;;0.60;;
18224;SDS011;9237;48.590;8.854;2023-02-14T15:02:54;0.60;;;0.60;;
18224;SDS011;9237;48.590;8.854;2023-02-14T15:05:23;0.60;;;0.60;;
18224;SDS011;9237;48.590;8.854;2023-02-14T15:07:52;0.65;;;0.65;;
18224;SDS011;9237;48.590;8.854;2023-02-14T15:10:22;0.70;;;0.70;;
18224;SDS011;9237;48.590;8.854;2023-02-14T15:12:51;0.70;;;0.70;;
18224;SDS011;9237;48.590;8.854;2023-02-14T15:15:41;0.60;;;0.60;;
18224;SDS011;9237;48.590;8.854;2023-02-14T15:18:12;0.70;;;0.70;;
18224;SDS011;9237;48.590;8.854;2023-02-14T15:20:39;0.70;;;0.70;;
18224;SDS011;9237;48.590;8.854;2023-02-14T15:23:13;0.60;;;0.60;;
18224;SDS011;9237;48.590;8.854;2023-02-14T15:25:43;0.70;;;0.70;;
18224;SDS011;9237;48.590;8.854;2023-02-14T15:28:13;0.70;;;0.70;;
18224;SDS011;9237;48.590;8.854;2023-02-14T15:30:55;0.70;;;0.70;;
18224;SDS011;9237;48.590;8.854;2023-02-14T15:33:23;0.73;;;0.73;;
18224;SDS011;9237;48.590;8.854;2023-02-14T15:35:51;0.70;;;0.70;;
18224;SDS011;9237;48.590;8.854;2023-02-14T15:38:18;0.60;;;0.60;;
18224;SDS011;9237;48.590;8.854;2023-02-14T15:40:46;0.70;;;0.70;;
18224;SDS011;9237;48.590;8.854;2023-02-14T15:43:14;0.80;;;0.80;;
18224;SDS011;9237;48.590;8.854;2023-02-14T15:45:58;0.60;;;0.60;;